sensor_id;sensor_type;location;lat;lon;timestamp;P1;durP1;ratioP1;P2;durP2;ratioP2
20928;SDS011;21895;47.072;15.132;2024-01-06T00:01:09;11.37;;;4.20;;
20928;SDS011;21895;47.072;15.132;2024-01-06T00:03:38;11.47;;;4.30;;
20928;SDS011;21895;47.072;15.132;2024-01-06T00:06:05;12.43;;;4.70;;
20928;SDS011;21895;47.072;15.132;2024-01-06T00:08:31;9.50;;;4.37;;
20928;SDS011;21895;47.072;15.132;2024-01-06T00:10:58;13.90;;;4.30;;
20928;SDS011;21895;47.072;15.132;2024-01-06T00:13:28;11.23;;;4.50;;
20928;SDS011;21895;47.072;15.132;2024-01-06T00:15:55;10.87;;;4.03;;
20928;SDS011;21895;47.072;15.132;2024-01-06T00:18:21;18.43;;;4.80;;
20928;SDS011;21895;47.072;15.132;2024-01-06T00:20:48;18.87;;;4.87;;
20928;SDS011;21895;47.072;15.132;2024-01-06T00:23:15;12.87;;;4.47;;
20928;SDS011;21895;47.072;15.132;2024-01-06T00:25:41;21.60;;;4.83;;
20928;SDS011;21895;47.072;15.132;2024-01-06T00:28:08;7.13;;;3.33;;
20928;SDS011;21895;47.072;15.132;2024-01-06T00:30:35;12.47;;;4.70;;
20928;SDS011;21895;47.072;15.132;2024-01-06T00:33:02;9.00;;;3.77;;
20928;SDS011;21895;47.072;15.132;2024-01-06T00:35:29;12.80;;;4.77;;
20928;SDS011;21895;47.072;15.132;2024-01-06T00:37:55;12.37;;;3.50;;
20928;SDS011;21895;47.072;15.132;2024-01-06T00:40:22;11.90;;;4.43;;
20928;SDS011;21895;47.072;15.132;2024-01-06T00:42:48;10.63;;;4.03;;
20928;SDS011;21895;47.072;15.132;2024-01-06T00:45:15;17.03;;;4.73;;
20928;SDS011;21895;47.072;15.132;2024-01-06T00:47:42;10.33;;;3.90;;
20928;SDS011;21895;47.072;15.132;2024-01-06T00:50:10;14.47;;;4.67;;
20928;SDS011;21895;47.072;15.132;2024-01-06T00:52:36;14.77;;;4.20;;
20928;SDS011;21895;47.072;15.132;2024-01-06T00:55:03;12.53;;;3.63;;
20928;SDS011;21895;47.072;15.132;2024-01-06T00:57:30;18.43;;;5.00;;
20928;SDS011;21895;47.072;15.132;2024-01-06T00:59:56;9.87;;;3.93;;
20928;SDS011;21895;47.072;15.132;2024-01-06T01:02:23;15.63;;;4.53;;
20928;SDS011;21895;47.072;15.132;2024-01-06T01:04:50;13.43;;;4.10;;
20928;SDS011;21895;47.072;15.132;2024-01-06T01:07:18;9.13;;;3.50;;
20928;SDS011;21895;47.072;15.132;2024-01-06T01:09:44;14.80;;;4.00;;
20928;SDS011;21895;47.072;15.132;2024-01-06T01:12:11;11.33;;;4.23;;
20928;SDS011;21895;47.072;15.132;2024-01-06T01:14:38;11.77;;;4.93;;
20928;SDS011;21895;47.072;15.132;2024-01-06T01:17:04;14.07;;;3.87;;
20928;SDS011;21895;47.072;15.132;2024-01-06T01:19:31;16.57;;;3.90;;
20928;SDS011;21895;47.072;15.132;2024-01-06T01:21:57;17.27;;;4.47;;
20928;SDS011;21895;47.072;15.132;2024-01-06T01:24:24;10.23;;;3.77;;
20928;SDS011;21895;47.072;15.132;2024-01-06T01:26:51;15.17;;;3.30;;
20928;SDS011;21895;47.072;15.132;2024-01-06T01:29:17;6.47;;;4.00;;
20928;SDS011;21895;47.072;15.132;2024-01-06T01:31:46;13.57;;;5.17;;
20928;SDS011;21895;47.072;15.132;2024-01-06T01:34:13;17.50;;;5.10;;
20928;SDS011;21895;47.072;15.132;2024-01-06T01:36:39;10.87;;;4.53;;
20928;SDS011;21895;47.072;15.132;2024-01-06T01:39:07;17.30;;;4.70;;
20928;SDS011;21895;47.072;15.132;2024-01-06T01:41:33;10.27;;;3.93;;
20928;SDS011;21895;47.072;15.132;2024-01-06T01:44:00;13.10;;;4.13;;
20928;SDS011;21895;47.072;15.132;2024-01-06T01:46:27;9.17;;;4.40;;
20928;SDS011;21895;47.072;15.132;2024-01-06T01:48:56;10.70;;;3.67;;
20928;SDS011;21895;47.072;15.132;2024-01-06T01:51:26;11.43;;;3.47;;
20928;SDS011;21895;47.072;15.132;2024-01-06T01:53:59;11.53;;;4.57;;
20928;SDS011;21895;47.072;15.132;2024-01-06T01:56:30;20.50;;;5.07;;
20928;SDS011;21895;47.072;15.132;2024-01-06T01:59:09;14.17;;;4.57;;
20928;SDS011;21895;47.072;15.132;2024-01-06T02:01:41;15.23;;;4.10;;
20928;SDS011;21895;47.072;15.132;2024-01-06T02:04:08;10.63;;;4.53;;
20928;SDS011;21895;47.072;15.132;2024-01-06T02:06:35;14.83;;;4.13;;
20928;SDS011;21895;47.072;15.132;2024-01-06T02:09:02;14.63;;;4.23;;
20928;SDS011;21895;47.072;15.132;2024-01-06T02:11:28;23.63;;;4.53;;
20928;SDS011;21895;47.072;15.132;2024-01-06T02:13:55;12.27;;;4.00;;
20928;SDS011;21895;47.072;15.132;2024-01-06T02:16:21;11.67;;;3.90;;
20928;SDS011;21895;47.072;15.132;2024-01-06T02:18:48;9.77;;;3.93;;
20928;SDS011;21895;47.072;15.132;2024-01-06T02:21:15;14.37;;;4.30;;
20928;SDS011;21895;47.072;15.132;2024-01-06T02:23:45;14.10;;;4.00;;
20928;SDS011;21895;47.072;15.132;2024-01-06T02:26:13;11.87;;;4.87;;
20928;SDS011;21895;47.072;15.132;2024-01-06T02:28:41;7.43;;;3.27;;
20928;SDS011;21895;47.072;15.132;2024-01-06T02:31:13;9.30;;;3.97;;
20928;SDS011;21895;47.072;15.132;2024-01-06T02:33:40;11.30;;;3.93;;
20928;SDS011;21895;47.072;15.132;2024-01-06T02:36:07;12.93;;;4.60;;
20928;SDS011;21895;47.072;15.132;2024-01-06T02:38:33;11.07;;;4.20;;
20928;SDS011;21895;47.072;15.132;2024-01-06T02:41:00;11.10;;;3.70;;
20928;SDS011;21895;47.072;15.132;2024-01-06T02:43:27;9.67;;;4.13;;
20928;SDS011;21895;47.072;15.132;2024-01-06T02:45:53;14.33;;;3.47;;
20928;SDS011;21895;47.072;15.132;2024-01-06T02:48:20;8.57;;;3.47;;
20928;SDS011;21895;47.072;15.132;2024-01-06T02:50:47;15.17;;;3.93;;
20928;SDS011;21895;47.072;15.132;2024-01-06T02:53:13;14.00;;;4.37;;
20928;SDS011;21895;47.072;15.132;2024-01-06T02:55:40;9.77;;;3.77;;
20928;SDS011;21895;47.072;15.132;2024-01-06T02:58:06;21.70;;;4.47;;
20928;SDS011;21895;47.072;15.132;2024-01-06T03:00:33;9.80;;;3.37;;
20928;SDS011;21895;47.072;15.132;2024-01-06T03:03:00;8.93;;;3.47;;
20928;SDS011;21895;47.072;15.132;2024-01-06T03:05:27;13.67;;;3.07;;
20928;SDS011;21895;47.072;15.132;2024-01-06T03:07:53;8.00;;;3.30;;
20928;SDS011;21895;47.072;15.132;2024-01-06T03:10:20;16.27;;;3.97;;
20928;SDS011;21895;47.072;15.132;2024-01-06T03:12:46;9.83;;;3.77;;
20928;SDS011;21895;47.072;15.132;2024-01-06T03:15:13;7.77;;;3.13;;
20928;SDS011;21895;47.072;15.132;2024-01-06T03:17:40;10.17;;;3.53;;
20928;SDS011;21895;47.072;15.132;2024-01-06T03:20:07;9.77;;;3.23;;
20928;SDS011;21895;47.072;15.132;2024-01-06T03:22:34;10.23;;;3.47;;
20928;SDS011;21895;47.072;15.132;2024-01-06T03:25:01;8.93;;;3.70;;
20928;SDS011;21895;47.072;15.132;2024-01-06T03:27:28;9.57;;;3.60;;
20928;SDS011;21895;47.072;15.132;2024-01-06T03:29:55;9.63;;;3.63;;
20928;SDS011;21895;47.072;15.132;2024-01-06T03:32:21;17.90;;;4.03;;
20928;SDS011;21895;47.072;15.132;2024-01-06T03:34:48;10.63;;;3.83;;
20928;SDS011;21895;47.072;15.132;2024-01-06T03:37:14;8.83;;;3.10;;
20928;SDS011;21895;47.072;15.132;2024-01-06T03:39:41;17.70;;;4.03;;
20928;SDS011;21895;47.072;15.132;2024-01-06T03:42:08;4.87;;;2.43;;
20928;SDS011;21895;47.072;15.132;2024-01-06T03:44:34;8.93;;;2.97;;
20928;SDS011;21895;47.072;15.132;2024-01-06T03:47:01;7.40;;;3.43;;
20928;SDS011;21895;47.072;15.132;2024-01-06T03:49:27;9.10;;;3.10;;
20928;SDS011;21895;47.072;15.132;2024-01-06T03:51:54;9.43;;;3.03;;
20928;SDS011;21895;47.072;15.132;2024-01-06T03:54:21;12.37;;;4.73;;
20928;SDS011;21895;47.072;15.132;2024-01-06T03:56:48;10.27;;;3.57;;
20928;SDS011;21895;47.072;15.132;2024-01-06T03:59:14;9.83;;;3.50;;
20928;SDS011;21895;47.072;15.132;2024-01-06T04:01:41;13.20;;;3.77;;
20928;SDS011;21895;47.072;15.132;2024-01-06T04:04:08;9.77;;;3.63;;
20928;SDS011;21895;47.072;15.132;2024-01-06T04:06:34;9.47;;;3.37;;
20928;SDS011;21895;47.072;15.132;2024-01-06T04:09:01;21.67;;;4.00;;
20928;SDS011;21895;47.072;15.132;2024-01-06T04:11:28;9.90;;;3.57;;
20928;SDS011;21895;47.072;15.132;2024-01-06T04:13:54;5.97;;;3.30;;
20928;SDS011;21895;47.072;15.132;2024-01-06T04:16:21;11.90;;;3.77;;
20928;SDS011;21895;47.072;15.132;2024-01-06T04:18:47;13.33;;;3.37;;
20928;SDS011;21895;47.072;15.132;2024-01-06T04:21:14;11.63;;;4.60;;
20928;SDS011;21895;47.072;15.132;2024-01-06T04:23:41;7.70;;;3.80;;
20928;SDS011;21895;47.072;15.132;2024-01-06T04:26:07;8.73;;;3.33;;
20928;SDS011;21895;47.072;15.132;2024-01-06T04:28:34;11.60;;;3.20;;
20928;SDS011;21895;47.072;15.132;2024-01-06T04:31:01;7.50;;;3.00;;
20928;SDS011;21895;47.072;15.132;2024-01-06T04:33:27;9.47;;;3.70;;
20928;SDS011;21895;47.072;15.132;2024-01-06T04:35:54;13.57;;;3.77;;
20928;SDS011;21895;47.072;15.132;2024-01-06T04:38:21;9.47;;;3.40;;
20928;SDS011;21895;47.072;15.132;2024-01-06T04:40:47;12.57;;;4.30;;
20928;SDS011;21895;47.072;15.132;2024-01-06T04:43:14;14.73;;;4.33;;
20928;SDS011;21895;47.072;15.132;2024-01-06T04:45:41;13.80;;;4.10;;
20928;SDS011;21895;47.072;15.132;2024-01-06T04:48:07;7.50;;;3.67;;
20928;SDS011;21895;47.072;15.132;2024-01-06T04:50:34;9.40;;;4.00;;
20928;SDS011;21895;47.072;15.132;2024-01-06T04:53:01;16.93;;;4.57;;
20928;SDS011;21895;47.072;15.132;2024-01-06T04:55:28;18.17;;;4.17;;
20928;SDS011;21895;47.072;15.132;2024-01-06T04:57:54;5.23;;;3.30;;
20928;SDS011;21895;47.072;15.132;2024-01-06T05:00:21;8.40;;;2.73;;
20928;SDS011;21895;47.072;15.132;2024-01-06T05:02:47;8.47;;;2.77;;
20928;SDS011;21895;47.072;15.132;2024-01-06T05:05:14;11.03;;;3.70;;
20928;SDS011;21895;47.072;15.132;2024-01-06T05:07:41;9.10;;;3.50;;
20928;SDS011;21895;47.072;15.132;2024-01-06T05:10:07;10.60;;;3.63;;
20928;SDS011;21895;47.072;15.132;2024-01-06T05:12:34;9.70;;;3.27;;
20928;SDS011;21895;47.072;15.132;2024-01-06T05:15:01;10.97;;;3.93;;
20928;SDS011;21895;47.072;15.132;2024-01-06T05:17:28;10.20;;;3.77;;
20928;SDS011;21895;47.072;15.132;2024-01-06T05:19:55;8.47;;;3.63;;
20928;SDS011;21895;47.072;15.132;2024-01-06T05:22:22;9.77;;;3.50;;
20928;SDS011;21895;47.072;15.132;2024-01-06T05:24:48;10.00;;;3.20;;
20928;SDS011;21895;47.072;15.132;2024-01-06T05:27:18;7.73;;;2.90;;
20928;SDS011;21895;47.072;15.132;2024-01-06T05:29:45;10.30;;;3.93;;
20928;SDS011;21895;47.072;15.132;2024-01-06T05:32:12;5.47;;;2.70;;
20928;SDS011;21895;47.072;15.132;2024-01-06T05:34:39;12.13;;;4.30;;
20928;SDS011;21895;47.072;15.132;2024-01-06T05:37:05;16.20;;;4.30;;
20928;SDS011;21895;47.072;15.132;2024-01-06T05:39:32;15.50;;;4.50;;
20928;SDS011;21895;47.072;15.132;2024-01-06T05:41:59;12.93;;;3.17;;
20928;SDS011;21895;47.072;15.132;2024-01-06T05:44:25;9.23;;;3.40;;
20928;SDS011;21895;47.072;15.132;2024-01-06T05:46:52;7.27;;;3.33;;
20928;SDS011;21895;47.072;15.132;2024-01-06T05:49:18;9.10;;;3.53;;
20928;SDS011;21895;47.072;15.132;2024-01-06T05:51:45;10.57;;;3.80;;
20928;SDS011;21895;47.072;15.132;2024-01-06T05:54:13;12.40;;;4.43;;
20928;SDS011;21895;47.072;15.132;2024-01-06T05:56:39;11.77;;;4.13;;
20928;SDS011;21895;47.072;15.132;2024-01-06T05:59:06;13.67;;;4.43;;
20928;SDS011;21895;47.072;15.132;2024-01-06T06:01:32;9.57;;;4.37;;
20928;SDS011;21895;47.072;15.132;2024-01-06T06:03:59;9.63;;;3.77;;
20928;SDS011;21895;47.072;15.132;2024-01-06T06:06:26;7.50;;;4.07;;
20928;SDS011;21895;47.072;15.132;2024-01-06T06:08:52;10.67;;;4.27;;
20928;SDS011;21895;47.072;15.132;2024-01-06T06:11:19;11.33;;;3.90;;
20928;SDS011;21895;47.072;15.132;2024-01-06T06:13:46;12.83;;;3.30;;
20928;SDS011;21895;47.072;15.132;2024-01-06T06:16:12;8.43;;;2.87;;
20928;SDS011;21895;47.072;15.132;2024-01-06T06:18:39;10.33;;;3.57;;
20928;SDS011;21895;47.072;15.132;2024-01-06T06:21:06;9.40;;;3.10;;
20928;SDS011;21895;47.072;15.132;2024-01-06T06:23:33;6.30;;;3.00;;
20928;SDS011;21895;47.072;15.132;2024-01-06T06:26:04;6.33;;;3.07;;
20928;SDS011;21895;47.072;15.132;2024-01-06T06:28:32;7.33;;;3.27;;
20928;SDS011;21895;47.072;15.132;2024-01-06T06:31:00;12.50;;;3.70;;
20928;SDS011;21895;47.072;15.132;2024-01-06T06:33:27;14.30;;;3.43;;
20928;SDS011;21895;47.072;15.132;2024-01-06T06:35:54;5.07;;;2.90;;
20928;SDS011;21895;47.072;15.132;2024-01-06T06:38:21;8.00;;;3.20;;
20928;SDS011;21895;47.072;15.132;2024-01-06T06:40:47;9.47;;;3.60;;
20928;SDS011;21895;47.072;15.132;2024-01-06T06:43:14;11.47;;;3.73;;
20928;SDS011;21895;47.072;15.132;2024-01-06T06:45:45;11.30;;;2.87;;
20928;SDS011;21895;47.072;15.132;2024-01-06T06:48:11;14.50;;;4.43;;
20928;SDS011;21895;47.072;15.132;2024-01-06T06:50:38;14.80;;;5.87;;
20928;SDS011;21895;47.072;15.132;2024-01-06T06:53:07;18.10;;;5.37;;
20928;SDS011;21895;47.072;15.132;2024-01-06T06:55:34;13.07;;;4.07;;
20928;SDS011;21895;47.072;15.132;2024-01-06T06:58:03;15.83;;;3.80;;
20928;SDS011;21895;47.072;15.132;2024-01-06T07:00:31;6.97;;;2.80;;
20928;SDS011;21895;47.072;15.132;2024-01-06T07:02:58;12.23;;;4.60;;
20928;SDS011;21895;47.072;15.132;2024-01-06T07:05:25;14.27;;;4.20;;
20928;SDS011;21895;47.072;15.132;2024-01-06T07:07:52;6.83;;;3.10;;
20928;SDS011;21895;47.072;15.132;2024-01-06T07:10:18;8.67;;;3.43;;
20928;SDS011;21895;47.072;15.132;2024-01-06T07:12:47;13.87;;;3.30;;
20928;SDS011;21895;47.072;15.132;2024-01-06T07:15:13;14.13;;;2.97;;
20928;SDS011;21895;47.072;15.132;2024-01-06T07:17:40;9.97;;;3.50;;
20928;SDS011;21895;47.072;15.132;2024-01-06T07:20:07;7.10;;;2.90;;
20928;SDS011;21895;47.072;15.132;2024-01-06T07:22:36;6.80;;;3.53;;
20928;SDS011;21895;47.072;15.132;2024-01-06T07:25:03;7.27;;;2.83;;
20928;SDS011;21895;47.072;15.132;2024-01-06T07:27:31;6.73;;;3.00;;
20928;SDS011;21895;47.072;15.132;2024-01-06T07:29:58;13.67;;;3.43;;
20928;SDS011;21895;47.072;15.132;2024-01-06T07:32:24;8.83;;;4.17;;
20928;SDS011;21895;47.072;15.132;2024-01-06T07:34:51;7.77;;;3.97;;
20928;SDS011;21895;47.072;15.132;2024-01-06T07:37:18;7.60;;;3.27;;
20928;SDS011;21895;47.072;15.132;2024-01-06T07:39:44;7.87;;;3.73;;
20928;SDS011;21895;47.072;15.132;2024-01-06T07:42:11;7.40;;;3.17;;
20928;SDS011;21895;47.072;15.132;2024-01-06T07:44:38;7.20;;;3.07;;
20928;SDS011;21895;47.072;15.132;2024-01-06T07:47:04;10.40;;;3.50;;
20928;SDS011;21895;47.072;15.132;2024-01-06T07:49:31;10.07;;;3.97;;
20928;SDS011;21895;47.072;15.132;2024-01-06T07:51:58;7.67;;;3.13;;
20928;SDS011;21895;47.072;15.132;2024-01-06T07:54:25;5.87;;;3.13;;
20928;SDS011;21895;47.072;15.132;2024-01-06T07:56:52;12.13;;;4.50;;
20928;SDS011;21895;47.072;15.132;2024-01-06T07:59:19;16.87;;;5.17;;
20928;SDS011;21895;47.072;15.132;2024-01-06T08:01:45;15.97;;;3.97;;
20928;SDS011;21895;47.072;15.132;2024-01-06T08:04:12;12.23;;;3.67;;
20928;SDS011;21895;47.072;15.132;2024-01-06T08:06:39;9.17;;;3.30;;
20928;SDS011;21895;47.072;15.132;2024-01-06T08:09:05;8.20;;;3.07;;
20928;SDS011;21895;47.072;15.132;2024-01-06T08:11:32;7.80;;;3.23;;
20928;SDS011;21895;47.072;15.132;2024-01-06T08:13:58;10.20;;;3.63;;
20928;SDS011;21895;47.072;15.132;2024-01-06T08:16:25;8.10;;;3.00;;
20928;SDS011;21895;47.072;15.132;2024-01-06T08:18:51;8.50;;;3.20;;
20928;SDS011;21895;47.072;15.132;2024-01-06T08:21:18;12.60;;;5.07;;
20928;SDS011;21895;47.072;15.132;2024-01-06T08:23:45;10.57;;;4.97;;
20928;SDS011;21895;47.072;15.132;2024-01-06T08:26:12;12.60;;;5.07;;
20928;SDS011;21895;47.072;15.132;2024-01-06T08:28:39;15.90;;;5.50;;
20928;SDS011;21895;47.072;15.132;2024-01-06T08:31:05;14.77;;;6.73;;
20928;SDS011;21895;47.072;15.132;2024-01-06T08:33:32;14.40;;;6.17;;
20928;SDS011;21895;47.072;15.132;2024-01-06T08:35:59;11.87;;;5.97;;
20928;SDS011;21895;47.072;15.132;2024-01-06T08:38:26;20.03;;;6.23;;
20928;SDS011;21895;47.072;15.132;2024-01-06T08:40:52;13.20;;;4.80;;
20928;SDS011;21895;47.072;15.132;2024-01-06T08:43:19;14.47;;;4.30;;
20928;SDS011;21895;47.072;15.132;2024-01-06T08:45:46;9.40;;;3.37;;
20928;SDS011;21895;47.072;15.132;2024-01-06T08:48:13;9.73;;;3.57;;
20928;SDS011;21895;47.072;15.132;2024-01-06T08:50:41;8.90;;;3.73;;
20928;SDS011;21895;47.072;15.132;2024-01-06T08:53:07;9.90;;;3.57;;
20928;SDS011;21895;47.072;15.132;2024-01-06T08:55:34;9.93;;;3.77;;
20928;SDS011;21895;47.072;15.132;2024-01-06T08:58:00;10.67;;;3.90;;
20928;SDS011;21895;47.072;15.132;2024-01-06T09:00:27;17.00;;;4.07;;
20928;SDS011;21895;47.072;15.132;2024-01-06T09:02:54;13.30;;;4.83;;
20928;SDS011;21895;47.072;15.132;2024-01-06T09:05:20;11.20;;;5.30;;
20928;SDS011;21895;47.072;15.132;2024-01-06T09:07:47;17.70;;;7.30;;
20928;SDS011;21895;47.072;15.132;2024-01-06T09:10:20;26.70;;;8.17;;
20928;SDS011;21895;47.072;15.132;2024-01-06T09:12:46;22.57;;;8.27;;
20928;SDS011;21895;47.072;15.132;2024-01-06T09:15:13;50.43;;;16.93;;
20928;SDS011;21895;47.072;15.132;2024-01-06T09:17:40;39.10;;;11.47;;
20928;SDS011;21895;47.072;15.132;2024-01-06T09:20:06;26.90;;;8.17;;
20928;SDS011;21895;47.072;15.132;2024-01-06T09:22:34;19.70;;;8.87;;
20928;SDS011;21895;47.072;15.132;2024-01-06T09:25:01;17.87;;;7.50;;
20928;SDS011;21895;47.072;15.132;2024-01-06T09:27:27;28.67;;;7.17;;
20928;SDS011;21895;47.072;15.132;2024-01-06T09:29:54;18.70;;;7.17;;
20928;SDS011;21895;47.072;15.132;2024-01-06T09:32:21;17.33;;;6.90;;
20928;SDS011;21895;47.072;15.132;2024-01-06T09:34:48;19.97;;;6.27;;
20928;SDS011;21895;47.072;15.132;2024-01-06T09:37:15;13.40;;;6.20;;
20928;SDS011;21895;47.072;15.132;2024-01-06T09:39:42;17.20;;;5.90;;
20928;SDS011;21895;47.072;15.132;2024-01-06T09:42:08;16.10;;;6.20;;
20928;SDS011;21895;47.072;15.132;2024-01-06T09:44:37;17.80;;;6.20;;
20928;SDS011;21895;47.072;15.132;2024-01-06T09:47:04;16.60;;;6.50;;
20928;SDS011;21895;47.072;15.132;2024-01-06T09:49:31;17.27;;;5.73;;
20928;SDS011;21895;47.072;15.132;2024-01-06T09:52:04;15.30;;;5.40;;
20928;SDS011;21895;47.072;15.132;2024-01-06T09:54:46;10.07;;;5.13;;
20928;SDS011;21895;47.072;15.132;2024-01-06T09:57:21;17.60;;;5.50;;
20928;SDS011;21895;47.072;15.132;2024-01-06T09:59:50;14.53;;;5.07;;
20928;SDS011;21895;47.072;15.132;2024-01-06T10:02:17;17.00;;;5.40;;
20928;SDS011;21895;47.072;15.132;2024-01-06T10:04:44;12.60;;;4.53;;
20928;SDS011;21895;47.072;15.132;2024-01-06T10:07:11;12.73;;;5.10;;
20928;SDS011;21895;47.072;15.132;2024-01-06T10:09:42;10.17;;;4.63;;
20928;SDS011;21895;47.072;15.132;2024-01-06T10:12:09;9.50;;;4.50;;
20928;SDS011;21895;47.072;15.132;2024-01-06T10:14:36;15.23;;;5.60;;
20928;SDS011;21895;47.072;15.132;2024-01-06T10:17:05;15.73;;;5.23;;
20928;SDS011;21895;47.072;15.132;2024-01-06T10:19:36;19.27;;;5.93;;
20928;SDS011;21895;47.072;15.132;2024-01-06T10:22:04;16.17;;;5.83;;
20928;SDS011;21895;47.072;15.132;2024-01-06T10:24:31;20.23;;;6.93;;
20928;SDS011;21895;47.072;15.132;2024-01-06T10:26:58;19.93;;;7.60;;
20928;SDS011;21895;47.072;15.132;2024-01-06T10:29:25;19.83;;;8.17;;
20928;SDS011;21895;47.072;15.132;2024-01-06T10:31:52;24.73;;;8.97;;
20928;SDS011;21895;47.072;15.132;2024-01-06T10:34:21;33.47;;;11.30;;
20928;SDS011;21895;47.072;15.132;2024-01-06T10:36:49;36.37;;;12.83;;
20928;SDS011;21895;47.072;15.132;2024-01-06T10:39:20;31.33;;;12.30;;
20928;SDS011;21895;47.072;15.132;2024-01-06T10:41:48;35.63;;;13.40;;
20928;SDS011;21895;47.072;15.132;2024-01-06T10:44:15;32.33;;;14.77;;
20928;SDS011;21895;47.072;15.132;2024-01-06T10:46:42;65.20;;;17.80;;
20928;SDS011;21895;47.072;15.132;2024-01-06T10:49:13;44.87;;;16.90;;
20928;SDS011;21895;47.072;15.132;2024-01-06T10:51:42;50.13;;;18.67;;
20928;SDS011;21895;47.072;15.132;2024-01-06T10:54:13;54.23;;;17.10;;
20928;SDS011;21895;47.072;15.132;2024-01-06T10:56:43;39.93;;;15.67;;
20928;SDS011;21895;47.072;15.132;2024-01-06T10:59:11;48.10;;;17.00;;
20928;SDS011;21895;47.072;15.132;2024-01-06T11:01:40;37.03;;;13.67;;
20928;SDS011;21895;47.072;15.132;2024-01-06T11:04:09;38.17;;;15.23;;
20928;SDS011;21895;47.072;15.132;2024-01-06T11:06:36;37.73;;;12.80;;
20928;SDS011;21895;47.072;15.132;2024-01-06T11:09:16;38.13;;;12.30;;
20928;SDS011;21895;47.072;15.132;2024-01-06T11:11:59;25.87;;;9.90;;
20928;SDS011;21895;47.072;15.132;2024-01-06T11:14:27;25.67;;;10.00;;
20928;SDS011;21895;47.072;15.132;2024-01-06T11:16:54;26.37;;;10.73;;
20928;SDS011;21895;47.072;15.132;2024-01-06T11:26:51;28.47;;;11.00;;
20928;SDS011;21895;47.072;15.132;2024-01-06T11:29:21;31.47;;;10.80;;
20928;SDS011;21895;47.072;15.132;2024-01-06T11:34:51;28.43;;;10.87;;
20928;SDS011;21895;47.072;15.132;2024-01-06T11:37:24;36.13;;;11.97;;
20928;SDS011;21895;47.072;15.132;2024-01-06T11:42:13;16.53;;;7.23;;
20928;SDS011;21895;47.072;15.132;2024-01-06T11:44:43;22.03;;;9.43;;
20928;SDS011;21895;47.072;15.132;2024-01-06T11:47:13;17.10;;;5.70;;
20928;SDS011;21895;47.072;15.132;2024-01-06T11:49:46;14.87;;;5.47;;
20928;SDS011;21895;47.072;15.132;2024-01-06T11:52:19;15.83;;;5.20;;
20928;SDS011;21895;47.072;15.132;2024-01-06T11:54:47;12.27;;;4.10;;
20928;SDS011;21895;47.072;15.132;2024-01-06T11:57:15;8.80;;;4.17;;
20928;SDS011;21895;47.072;15.132;2024-01-06T11:59:42;16.03;;;5.80;;
20928;SDS011;21895;47.072;15.132;2024-01-06T12:02:11;13.97;;;4.80;;
20928;SDS011;21895;47.072;15.132;2024-01-06T12:04:39;10.90;;;4.43;;
20928;SDS011;21895;47.072;15.132;2024-01-06T12:07:09;11.40;;;4.97;;
20928;SDS011;21895;47.072;15.132;2024-01-06T12:09:40;41.60;;;15.37;;
20928;SDS011;21895;47.072;15.132;2024-01-06T12:12:07;28.10;;;8.77;;
20928;SDS011;21895;47.072;15.132;2024-01-06T12:14:36;18.57;;;5.70;;
20928;SDS011;21895;47.072;15.132;2024-01-06T12:17:03;11.53;;;5.33;;
20928;SDS011;21895;47.072;15.132;2024-01-06T12:19:30;15.20;;;6.47;;
20928;SDS011;21895;47.072;15.132;2024-01-06T12:22:04;18.63;;;6.97;;
20928;SDS011;21895;47.072;15.132;2024-01-06T12:24:32;19.07;;;6.30;;
20928;SDS011;21895;47.072;15.132;2024-01-06T12:26:59;12.73;;;6.27;;
20928;SDS011;21895;47.072;15.132;2024-01-06T12:29:26;17.47;;;6.23;;
20928;SDS011;21895;47.072;15.132;2024-01-06T12:31:54;19.30;;;7.00;;
20928;SDS011;21895;47.072;15.132;2024-01-06T12:34:21;17.13;;;6.87;;
20928;SDS011;21895;47.072;15.132;2024-01-06T12:36:48;16.30;;;6.90;;
20928;SDS011;21895;47.072;15.132;2024-01-06T12:39:20;15.43;;;7.00;;
20928;SDS011;21895;47.072;15.132;2024-01-06T12:41:50;25.17;;;7.37;;
20928;SDS011;21895;47.072;15.132;2024-01-06T12:44:17;24.97;;;8.97;;
20928;SDS011;21895;47.072;15.132;2024-01-06T12:46:44;21.83;;;8.20;;
20928;SDS011;21895;47.072;15.132;2024-01-06T12:49:10;21.67;;;8.97;;
20928;SDS011;21895;47.072;15.132;2024-01-06T12:51:37;28.13;;;9.93;;
20928;SDS011;21895;47.072;15.132;2024-01-06T12:54:04;22.97;;;9.03;;
20928;SDS011;21895;47.072;15.132;2024-01-06T12:56:31;25.57;;;9.00;;
20928;SDS011;21895;47.072;15.132;2024-01-06T12:58:57;21.63;;;8.93;;
20928;SDS011;21895;47.072;15.132;2024-01-06T13:01:25;26.97;;;9.77;;
20928;SDS011;21895;47.072;15.132;2024-01-06T13:03:51;25.57;;;9.83;;
20928;SDS011;21895;47.072;15.132;2024-01-06T13:06:20;20.93;;;8.37;;
20928;SDS011;21895;47.072;15.132;2024-01-06T13:08:46;20.77;;;8.70;;
20928;SDS011;21895;47.072;15.132;2024-01-06T13:11:13;24.83;;;9.47;;
20928;SDS011;21895;47.072;15.132;2024-01-06T13:13:40;28.93;;;9.17;;
20928;SDS011;21895;47.072;15.132;2024-01-06T13:16:07;27.77;;;9.60;;
20928;SDS011;21895;47.072;15.132;2024-01-06T13:18:33;23.50;;;9.27;;
20928;SDS011;21895;47.072;15.132;2024-01-06T13:21:01;19.63;;;8.57;;
20928;SDS011;21895;47.072;15.132;2024-01-06T13:23:27;21.63;;;9.27;;
20928;SDS011;21895;47.072;15.132;2024-01-06T13:25:54;27.40;;;9.27;;
20928;SDS011;21895;47.072;15.132;2024-01-06T13:28:23;23.77;;;9.33;;
20928;SDS011;21895;47.072;15.132;2024-01-06T13:30:50;22.73;;;8.17;;
20928;SDS011;21895;47.072;15.132;2024-01-06T13:33:17;21.50;;;8.93;;
20928;SDS011;21895;47.072;15.132;2024-01-06T13:35:44;25.53;;;9.93;;
20928;SDS011;21895;47.072;15.132;2024-01-06T13:38:11;27.93;;;8.70;;
20928;SDS011;21895;47.072;15.132;2024-01-06T13:40:38;21.67;;;9.00;;
20928;SDS011;21895;47.072;15.132;2024-01-06T13:43:05;19.00;;;7.70;;
20928;SDS011;21895;47.072;15.132;2024-01-06T13:45:35;17.77;;;8.70;;
20928;SDS011;21895;47.072;15.132;2024-01-06T13:48:02;20.97;;;8.30;;
20928;SDS011;21895;47.072;15.132;2024-01-06T13:50:33;23.20;;;9.03;;
20928;SDS011;21895;47.072;15.132;2024-01-06T13:52:59;21.87;;;8.50;;
20928;SDS011;21895;47.072;15.132;2024-01-06T13:55:28;21.30;;;9.17;;
20928;SDS011;21895;47.072;15.132;2024-01-06T13:57:55;17.57;;;8.27;;
20928;SDS011;21895;47.072;15.132;2024-01-06T14:00:22;23.93;;;8.87;;
20928;SDS011;21895;47.072;15.132;2024-01-06T14:02:49;21.80;;;7.83;;
20928;SDS011;21895;47.072;15.132;2024-01-06T14:05:15;27.73;;;8.30;;
20928;SDS011;21895;47.072;15.132;2024-01-06T14:07:45;21.70;;;7.63;;
20928;SDS011;21895;47.072;15.132;2024-01-06T14:10:14;22.03;;;6.40;;
20928;SDS011;21895;47.072;15.132;2024-01-06T14:12:41;24.83;;;8.77;;
20928;SDS011;21895;47.072;15.132;2024-01-06T14:15:08;22.27;;;8.43;;
20928;SDS011;21895;47.072;15.132;2024-01-06T14:17:35;24.10;;;7.20;;
20928;SDS011;21895;47.072;15.132;2024-01-06T14:20:02;19.50;;;7.60;;
20928;SDS011;21895;47.072;15.132;2024-01-06T14:22:30;21.67;;;7.80;;
20928;SDS011;21895;47.072;15.132;2024-01-06T14:24:56;22.13;;;7.70;;
20928;SDS011;21895;47.072;15.132;2024-01-06T14:27:23;19.67;;;7.63;;
20928;SDS011;21895;47.072;15.132;2024-01-06T14:29:51;19.17;;;7.50;;
20928;SDS011;21895;47.072;15.132;2024-01-06T14:32:21;19.33;;;7.37;;
20928;SDS011;21895;47.072;15.132;2024-01-06T14:34:49;17.40;;;6.03;;
20928;SDS011;21895;47.072;15.132;2024-01-06T14:37:16;14.20;;;6.23;;